Time;durP1;ratioP1;P1;durP2;ratioP2;P2;SDS_P1;SDS_P2;PMS_P1;PMS_P2;Temp;Humidity;BMP_temperature;BMP_pressure;BME280_temperature;BME280_humidity;BME280_pressure;Samples;Min_cycle;Max_cycle;Signal;HPM_P1;HPM_P2
2023/01/18 00:00:19;;;;;;;8.80;3.15;;;;;;;1.62;86.66;96986.53;12182839;19;20011;-84
2023/01/18 00:04:20;;;;;;;4.97;2.40;;;;;;;1.57;86.85;96984.56;12215572;19;19998;-84
2023/01/18 00:08:22;;;;;;;9.32;2.97;;;;;;;1.57;86.89;96983.75;12250615;19;20363;-84
2023/01/18 00:12:24;;;;;;;7.10;3.00;;;;;;;1.57;86.65;96975.63;12187840;19;20073;-84
2023/01/18 00:16:26;;;;;;;5.80;2.78;;;;;;;1.58;86.43;96974.56;12207556;19;20010;-84
2023/01/18 00:21:11;;;;;;;7.72;3.30;;;;;;;1.57;86.09;96972.91;12211887;19;20165;-84
2023/01/18 00:25:12;;;;;;;7.53;2.92;;;;;;;1.60;86.14;96964.25;12191415;19;20013;-84
2023/01/18 00:29:14;;;;;;;5.28;2.35;;;;;;;1.63;86.41;96960.19;12206164;19;20010;-83
2023/01/18 00:33:16;;;;;;;6.00;2.43;;;;;;;1.61;85.99;96963.19;12189212;19;20006;-84
2023/01/18 00:37:18;;;;;;;5.45;2.45;;;;;;;1.58;86.31;96972.66;12207393;19;20027;-84
2023/01/18 00:41:20;;;;;;;6.45;2.38;;;;;;;1.57;86.50;96962.06;12209441;19;20006;-84
2023/01/18 00:45:22;;;;;;;4.38;2.50;;;;;;;1.51;86.09;96968.53;12189763;19;20003;-84
2023/01/18 00:49:23;;;;;;;5.57;2.35;;;;;;;1.45;86.38;96972.28;12205110;19;20011;-84
2023/01/18 00:53:25;;;;;;;6.40;2.60;;;;;;;1.35;87.56;96968.41;12209831;19;20029;-83
2023/01/18 00:57:27;;;;;;;5.00;2.50;;;;;;;1.34;87.80;96974.94;12184795;19;20034;-84
2023/01/18 01:01:29;;;;;;;8.25;3.30;;;;;;;1.29;88.05;96977.59;12204449;19;20006;-83
2023/01/18 01:09:51;;;;;;;6.80;3.25;;;;;;;1.18;88.58;96986.72;12189909;19;20026;-83
2023/01/18 01:26:57;;;;;;;5.28;3.10;;;;;;;0.95;90.61;97008.75;12266148;19;20386;-84
2023/01/18 01:31:00;;;;;;;6.97;3.03;;;;;;;0.89;91.99;97010.59;12219199;19;20081;-84
2023/01/18 01:35:02;;;;;;;7.03;3.33;;;;;;;0.85;91.84;97004.88;12208699;19;20002;-83
2023/01/18 01:39:05;;;;;;;5.47;2.90;;;;;;;0.85;92.54;97007.59;12206022;19;20006;-83
2023/01/18 01:43:13;;;;;;;7.22;3.28;;;;;;;0.83;92.86;97008.91;12180670;19;20107;-83
2023/01/18 01:47:30;;;;;;;6.63;3.47;;;;;;;0.78;93.06;97020.53;12200570;19;20006;-83
2023/01/18 01:51:34;;;;;;;8.73;3.50;;;;;;;0.78;93.18;97031.38;12179091;19;20089;-84
2023/01/18 01:55:38;;;;;;;6.10;3.03;;;;;;;0.75;93.35;97028.38;12201753;19;20022;-83
2023/01/18 01:59:45;;;;;;;10.10;3.95;;;;;;;0.71;93.20;97033.44;12201040;19;20006;-83
2023/01/18 02:03:47;;;;;;;7.18;3.30;;;;;;;0.70;93.73;97039.94;12178235;19;19999;-83
2023/01/18 02:07:49;;;;;;;6.88;3.15;;;;;;;0.70;94.32;97044.56;12201583;19;20852;-83
2023/01/18 02:11:53;;;;;;;5.93;3.20;;;;;;;0.69;94.62;97049.16;12204248;19;20305;-83
2023/01/18 02:16:16;;;;;;;10.70;4.00;;;;;;;0.66;95.02;97057.81;12176986;19;20010;-83
2023/01/18 02:20:42;;;;;;;6.20;3.10;;;;;;;0.66;95.88;97065.94;12199277;19;20011;-83
2023/01/18 02:25:09;;;;;;;7.80;4.18;;;;;;;0.69;96.29;97070.84;12181984;19;20006;-82
2023/01/18 02:29:28;;;;;;;6.53;3.03;;;;;;;0.71;96.82;97071.41;12199900;19;20046;-83
2023/01/18 02:33:42;;;;;;;9.40;3.88;;;;;;;0.70;98.38;97066.25;12177149;19;20030;-83
2023/01/18 02:37:50;;;;;;;6.90;3.75;;;;;;;0.71;97.59;97073.28;12195387;19;20073;-83
2023/01/18 02:46:34;;;;;;;6.43;3.25;;;;;;;0.73;97.87;97090.94;12169623;19;20034;-83
2023/01/18 02:50:36;;;;;;;6.30;2.97;;;;;;;0.77;97.72;97100.19;12195162;19;20003;-83
2023/01/18 02:54:39;;;;;;;11.23;3.70;;;;;;;0.78;97.88;97093.72;12185138;19;20010;-84
2023/01/18 02:58:46;;;;;;;6.80;3.10;;;;;;;0.86;97.96;97108.69;12206101;19;20007;-84
2023/01/18 03:02:49;;;;;;;5.82;3.15;;;;;;;0.89;97.75;97110.91;12211250;19;20002;-83
2023/01/18 03:07:00;;;;;;;7.32;3.25;;;;;;;0.90;98.31;97101.72;12181564;19;20002;-83
2023/01/18 03:11:06;;;;;;;7.13;3.63;;;;;;;0.91;97.73;97112.28;12211023;19;20010;-83
2023/01/18 03:15:28;;;;;;;10.55;3.55;;;;;;;0.98;97.55;97117.53;12187835;19;20006;-83
2023/01/18 03:24:02;;;;;;;6.82;2.75;;;;;;;1.04;96.99;97116.53;12207854;19;20007;-83
2023/01/18 03:36:57;;;;;;;7.90;3.15;;;;;;;1.17;96.32;97131.56;12181348;19;20038;-83
2023/01/18 03:41:00;;;;;;;7.47;3.40;;;;;;;1.22;96.68;97139.78;12206161;19;20010;-82
2023/01/18 03:45:14;;;;;;;10.75;3.10;;;;;;;1.27;96.51;97149.84;12209021;19;20027;-83
2023/01/18 03:49:16;;;;;;;6.15;2.72;;;;;;;1.34;96.54;97150.47;12212713;19;20003;-83
2023/01/18 03:53:44;;;;;;;7.30;2.90;;;;;;;1.32;95.95;97155.31;12258769;19;20003;-85
2023/01/18 03:57:54;;;;;;;7.30;3.65;;;;;;;1.37;95.91;97152.69;12198195;19;20010;-84
2023/01/18 04:01:55;;;;;;;5.32;3.13;;;;;;;1.45;95.87;97159.50;12210488;19;20050;-83
2023/01/18 04:05:59;;;;;;;6.63;2.95;;;;;;;1.51;95.71;97169.34;12208511;19;20011;-83
2023/01/18 04:10:01;;;;;;;5.13;2.55;;;;;;;1.55;95.84;97181.34;12190867;19;20006;-83
2023/01/18 04:14:02;;;;;;;5.57;2.90;;;;;;;1.57;95.82;97184.59;12209785;19;20011;-84
2023/01/18 04:18:05;;;;;;;9.40;3.75;;;;;;;1.61;95.75;97183.03;12212501;19;20111;-83
2023/01/18 04:22:07;;;;;;;6.28;3.05;;;;;;;1.63;95.42;97199.88;12187039;19;20026;-84
2023/01/18 04:26:12;;;;;;;9.95;4.18;;;;;;;1.69;95.62;97192.59;12205888;19;20010;-84
2023/01/18 04:30:14;;;;;;;9.85;3.97;;;;;;;1.72;95.79;97198.31;12184346;19;20007;-83
2023/01/18 04:34:15;;;;;;;10.10;3.13;;;;;;;1.72;95.77;97203.75;12204014;19;20081;-82
2023/01/18 04:38:17;;;;;;;6.50;3.58;;;;;;;1.69;95.78;97206.16;12203675;19;20006;-83
2023/01/18 04:42:18;;;;;;;6.93;3.83;;;;;;;1.61;96.86;97218.31;12182625;19;20011;-81
2023/01/18 04:46:20;;;;;;;7.78;3.53;;;;;;;1.57;97.51;97214.47;12201866;19;20039;-82
2023/01/18 04:50:22;;;;;;;11.27;3.75;;;;;;;1.59;98.01;97232.13;12202332;19;20009;-83
2023/01/18 04:54:24;;;;;;;7.27;3.70;;;;;;;1.62;98.49;97235.44;12180192;19;20006;-82
2023/01/18 04:58:25;;;;;;;10.40;4.28;;;;;;;1.58;98.41;97238.66;12202132;19;20010;-81
2023/01/18 05:02:27;;;;;;;7.22;3.63;;;;;;;1.55;99.09;97238.34;12201499;19;20373;-82
2023/01/18 05:06:29;;;;;;;8.25;3.75;;;;;;;1.49;99.64;97244.78;12204445;19;20484;-81
2023/01/18 05:10:32;;;;;;;11.85;4.20;;;;;;;1.46;100.00;97245.28;12217349;19;20030;-82
2023/01/18 05:14:33;;;;;;;6.72;3.60;;;;;;;1.44;100.00;97258.28;12221223;19;20006;-82
2023/01/18 05:18:35;;;;;;;8.48;3.60;;;;;;;1.43;100.00;97262.91;12195640;19;20352;-83
2023/01/18 05:22:37;;;;;;;8.65;3.50;;;;;;;1.42;100.00;97268.56;12198811;19;20026;-82
2023/01/18 05:26:39;;;;;;;10.77;4.10;;;;;;;1.38;100.00;97273.69;12200598;19;19999;-82
2023/01/18 05:30:41;;;;;;;7.00;3.17;;;;;;;1.38;100.00;97283.72;12181143;19;20031;-83
2023/01/18 05:34:43;;;;;;;8.82;3.97;;;;;;;1.36;100.00;97282.06;12197410;19;20010;-82
2023/01/18 05:38:45;;;;;;;10.80;4.65;;;;;;;1.35;100.00;97294.00;12199589;19;20492;-82
2023/01/18 05:42:47;;;;;;;7.40;3.92;;;;;;;1.34;100.00;97295.09;12175089;19;20011;-82
2023/01/18 05:46:48;;;;;;;6.93;3.78;;;;;;;1.30;100.00;97304.78;12198195;19;20074;-81
2023/01/18 05:50:50;;;;;;;11.07;3.80;;;;;;;1.25;100.00;97309.31;12199412;19;20015;-83
2023/01/18 05:54:52;;;;;;;8.47;3.77;;;;;;;1.21;100.00;97310.91;12178817;19;20006;-82
2023/01/18 05:58:54;;;;;;;7.13;3.75;;;;;;;1.19;100.00;97313.88;12201547;19;20006;-80
2023/01/18 06:02:55;;;;;;;12.32;4.47;;;;;;;1.15;100.00;97318.16;12209012;19;20024;-81
2023/01/18 06:06:57;;;;;;;9.60;4.17;;;;;;;1.16;100.00;97324.38;12184132;19;20017;-80
2023/01/18 06:11:30;;;;;;;9.48;3.47;;;;;;;1.21;100.00;97328.00;12198745;19;20029;-85
2023/01/18 06:15:32;;;;;;;9.38;4.13;;;;;;;1.23;100.00;97342.13;12169456;19;20010;-81
2023/01/18 06:19:35;;;;;;;12.05;4.80;;;;;;;1.26;100.00;97355.19;12214474;19;20023;-81
2023/01/18 06:23:37;;;;;;;8.77;3.75;;;;;;;1.31;100.00;97362.59;12210972;19;20018;-81
2023/01/18 06:27:39;;;;;;;9.93;3.47;;;;;;;1.35;100.00;97361.84;12194763;19;20030;-82
2023/01/18 06:31:41;;;;;;;11.65;3.92;;;;;;;1.41;100.00;97367.34;12227067;19;20013;-81
2023/01/18 06:35:43;;;;;;;8.43;3.95;;;;;;;1.45;100.00;97371.19;12229428;19;20463;-81
2023/01/18 06:39:45;;;;;;;8.02;3.88;;;;;;;1.48;100.00;97382.34;12206701;19;20055;-81
2023/01/18 06:43:48;;;;;;;10.00;3.97;;;;;;;1.52;100.00;97397.09;12223718;19;20383;-81
2023/01/18 06:47:51;;;;;;;7.55;3.58;;;;;;;1.57;100.00;97399.03;12218896;19;20010;-81
2023/01/18 06:51:52;;;;;;;6.82;3.53;;;;;;;1.58;100.00;97397.97;12200942;19;20591;-81
2023/01/18 06:55:57;;;;;;;8.73;3.47;;;;;;;1.59;100.00;97405.03;12225283;19;20010;-81
2023/01/18 07:00:00;;;;;;;7.00;3.60;;;;;;;1.59;100.00;97416.72;12225118;19;20559;-81
2023/01/18 07:04:02;;;;;;;10.10;3.88;;;;;;;1.60;100.00;97418.34;12208336;19;20010;-80
2023/01/18 07:08:04;;;;;;;6.85;3.78;;;;;;;1.60;100.00;97433.81;12238343;19;21873;-82
2023/01/18 07:12:07;;;;;;;9.13;4.28;;;;;;;1.55;100.00;97439.19;12263482;19;20250;-82
2023/01/18 07:16:16;;;;;;;9.03;3.03;;;;;;;1.54;100.00;97441.06;12235204;19;20503;-82
2023/01/18 07:20:18;;;;;;;8.35;3.00;;;;;;;1.57;100.00;97456.84;12239627;19;20011;-81
2023/01/18 07:24:21;;;;;;;7.68;3.00;;;;;;;1.59;100.00;97462.03;12205506;19;20479;-81
2023/01/18 07:28:22;;;;;;;7.20;3.00;;;;;;;1.63;100.00;97465.06;12233163;19;20018;-81
2023/01/18 07:32:24;;;;;;;6.93;3.53;;;;;;;1.64;100.00;97472.97;12234923;19;20047;-81
2023/01/18 07:36:30;;;;;;;7.50;3.50;;;;;;;1.68;100.00;97471.41;12208741;19;20011;-81
2023/01/18 07:40:32;;;;;;;5.43;2.90;;;;;;;1.77;100.00;97491.63;12241432;19;20006;-81
2023/01/18 07:44:34;;;;;;;6.43;3.50;;;;;;;1.80;99.32;97493.84;12245329;19;20013;-82
2023/01/18 07:48:37;;;;;;;8.80;3.35;;;;;;;1.87;98.66;97503.69;12214048;19;20083;-83
2023/01/18 07:52:39;;;;;;;7.30;2.83;;;;;;;1.91;98.13;97515.72;12236928;19;20010;-82
2023/01/18 07:56:41;;;;;;;8.65;3.58;;;;;;;1.98;97.66;97516.34;12237009;19;20014;-83
2023/01/18 08:00:44;;;;;;;6.30;2.88;;;;;;;1.97;96.64;97514.72;12208674;19;20007;-83
2023/01/18 08:04:50;;;;;;;12.23;3.10;;;;;;;2.00;96.55;97530.50;12234360;19;20010;-83
2023/01/18 08:08:55;;;;;;;9.30;3.28;;;;;;;1.97;96.16;97533.72;12229230;19;21574;-82
2023/01/18 08:12:57;;;;;;;4.85;2.28;;;;;;;2.02;96.27;97544.66;12207326;19;20519;-83
2023/01/18 08:16:59;;;;;;;9.93;2.67;;;;;;;2.08;95.34;97551.78;12225045;19;20669;-83
2023/01/18 08:21:02;;;;;;;8.30;2.63;;;;;;;2.06;95.18;97562.09;12228932;19;20003;-82
2023/01/18 08:25:04;;;;;;;8.60;2.50;;;;;;;1.99;95.11;97566.88;12204872;19;20041;-82
2023/01/18 08:29:05;;;;;;;8.32;2.50;;;;;;;2.00;95.41;97563.09;12227751;19;20470;-82
2023/01/18 08:33:07;;;;;;;5.22;2.70;;;;;;;2.03;94.83;97573.47;12226779;19;20019;-82
2023/01/18 08:37:10;;;;;;;5.73;2.50;;;;;;;2.11;94.59;97578.44;12216606;19;20017;-82
2023/01/18 08:41:12;;;;;;;10.27;3.25;;;;;;;2.20;93.87;97587.00;12257417;19;20270;-81
2023/01/18 08:45:14;;;;;;;7.38;2.80;;;;;;;2.29;93.68;97590.97;12250488;19;20015;-82
2023/01/18 08:49:16;;;;;;;7.00;2.72;;;;;;;2.30;92.58;97598.03;12256309;19;20010;-83
2023/01/18 08:53:18;;;;;;;4.55;2.40;;;;;;;2.36;92.45;97604.38;12230038;19;20057;-82
2023/01/18 08:57:20;;;;;;;6.60;2.50;;;;;;;2.41;90.56;97613.41;12205776;19;20007;-82
2023/01/18 09:01:23;;;;;;;;;;;;;;;2.46;90.13;97629.78;12227827;19;20006;-82
2023/01/18 09:05:25;;;;;;;6.50;2.08;;;;;;;2.51;88.35;97629.03;12224840;19;20337;-82
2023/01/18 09:09:27;;;;;;;6.40;2.60;;;;;;;2.51;87.44;97634.47;12207843;19;20062;-82
2023/01/18 09:13:31;;;;;;;8.05;2.42;;;;;;;2.61;87.35;97644.66;12227802;19;20525;-82
2023/01/18 09:17:33;;;;;;;6.55;2.13;;;;;;;2.64;86.38;97652.31;12224064;19;20011;-82
2023/01/18 09:21:34;;;;;;;4.47;1.90;;;;;;;2.68;86.28;97657.00;12201010;19;20033;-81
2023/01/18 09:25:36;;;;;;;8.10;2.70;;;;;;;2.79;85.50;97663.38;12217961;19;21482;-82
2023/01/18 09:29:38;;;;;;;10.38;2.70;;;;;;;2.82;84.19;97667.50;12221734;19;20042;-82
2023/01/18 09:33:41;;;;;;;9.27;3.13;;;;;;;2.86;83.20;97680.34;12203004;19;20062;-82
2023/01/18 09:37:54;;;;;;;8.48;2.85;;;;;;;2.86;82.32;97695.84;12222768;19;20018;-81
2023/01/18 09:41:57;;;;;;;;;;;;;;;2.82;82.65;97705.56;12221502;19;20047;-82
2023/01/18 09:46:00;;;;;;;5.95;2.30;;;;;;;2.89;81.42;97708.94;12195647;19;19961;-82
2023/01/18 09:50:12;;;;;;;6.13;2.65;;;;;;;2.88;81.21;97718.16;12222808;19;20002;-83
2023/01/18 09:54:22;;;;;;;6.97;3.83;;;;;;;2.83;78.85;97721.66;12203555;19;20011;-82
2023/01/18 09:58:45;;;;;;;7.93;2.50;;;;;;;2.74;78.91;97726.69;12223388;19;20042;-82
2023/01/18 10:02:52;;;;;;;5.00;2.50;;;;;;;2.68;78.25;97735.88;12225574;19;20010;-81
2023/01/18 10:07:00;;;;;;;6.43;2.42;;;;;;;2.65;78.09;97743.69;12207921;19;20034;-82
2023/01/18 10:11:09;;;;;;;5.75;2.53;;;;;;;2.71;77.36;97743.53;12233797;19;20716;-81
2023/01/18 10:15:30;;;;;;;7.82;2.75;;;;;;;2.76;77.71;97744.66;12231662;19;20014;-82
2023/01/18 10:19:32;;;;;;;6.57;2.53;;;;;;;2.79;77.48;97744.97;12214554;19;20040;-82
2023/01/18 10:23:43;;;;;;;4.85;2.35;;;;;;;2.88;77.54;97756.25;12229801;19;20038;-82
2023/01/18 10:27:59;;;;;;;5.70;2.30;;;;;;;2.94;77.33;97756.09;12207528;19;20046;-81
2023/01/18 10:32:07;;;;;;;5.32;2.53;;;;;;;3.01;76.61;97761.34;12229057;19;20010;-82
2023/01/18 10:36:12;;;;;;;6.18;2.60;;;;;;;3.08;77.06;97761.97;12232320;19;20009;-81
2023/01/18 10:40:14;;;;;;;6.65;2.63;;;;;;;3.16;75.15;97767.00;12209673;19;20088;-82
2023/01/18 10:44:15;;;;;;;6.15;2.30;;;;;;;3.17;73.71;97768.63;12228878;19;20090;-81
2023/01/18 10:48:24;;;;;;;7.07;2.63;;;;;;;3.37;74.69;97769.97;12208186;19;20155;-81
2023/01/18 10:52:29;;;;;;;5.80;2.45;;;;;;;3.69;73.86;97769.25;12229167;19;20013;-82
2023/01/18 10:56:31;;;;;;;6.97;2.30;;;;;;;3.91;71.66;97778.22;12220775;19;20046;-82
2023/01/18 11:00:34;;;;;;;5.45;2.63;;;;;;;4.05;69.68;97779.47;12200074;19;20003;-81
2023/01/18 11:04:36;;;;;;;4.93;2.20;;;;;;;4.19;69.06;97774.41;12220952;19;20030;-82
2023/01/18 11:08:37;;;;;;;9.18;2.65;;;;;;;4.52;67.31;97781.53;12228730;19;20010;-81
2023/01/18 11:12:42;;;;;;;6.40;2.50;;;;;;;4.49;66.04;97784.78;12207022;19;20010;-82
2023/01/18 11:16:57;;;;;;;7.93;2.55;;;;;;;4.50;66.09;97789.13;12220876;19;20014;-81
2023/01/18 11:20:59;;;;;;;9.85;2.78;;;;;;;4.59;65.23;97788.66;12222718;19;20021;-82
2023/01/18 11:25:00;;;;;;;4.95;2.45;;;;;;;4.65;63.84;97793.09;12202383;19;20042;-81
2023/01/18 11:29:05;;;;;;;5.63;2.43;;;;;;;4.64;64.39;97796.88;12223148;19;20036;-82
2023/01/18 11:33:17;;;;;;;7.53;2.35;;;;;;;4.70;63.87;97801.28;12228254;19;20476;-82
2023/01/18 11:37:34;;;;;;;10.60;2.00;;;;;;;4.70;63.19;97799.41;12201249;19;20003;-82
2023/01/18 11:41:36;;;;;;;5.90;2.28;;;;;;;4.79;61.65;97805.19;12226930;19;20007;-82
2023/01/18 11:45:46;;;;;;;5.22;1.80;;;;;;;4.76;58.22;97805.72;12204656;19;20023;-83
2023/01/18 11:49:58;;;;;;;3.72;1.80;;;;;;;4.58;60.10;97809.69;12236078;19;20063;-82
2023/01/18 11:54:21;;;;;;;4.95;1.73;;;;;;;4.75;61.74;97807.59;12239343;19;20010;-82
2023/01/18 11:58:28;;;;;;;3.80;1.50;;;;;;;5.01;58.51;97810.53;12213337;19;20046;-81
2023/01/18 12:02:36;;;;;;;2.95;2.08;;;;;;;5.06;55.70;97817.91;12229539;19;19999;-81
2023/01/18 12:06:53;;;;;;;6.25;2.15;;;;;;;5.12;56.52;97816.91;12207094;19;20022;-81
2023/01/18 12:11:04;;;;;;;4.75;1.83;;;;;;;5.38;56.33;97824.13;12230433;19;20051;-82
2023/01/18 12:15:09;;;;;;;6.72;2.33;;;;;;;5.53;53.09;97830.75;12225077;19;20010;-83
2023/01/18 12:19:35;;;;;;;6.50;2.00;;;;;;;5.52;53.53;97831.84;12199581;19;20018;-83
2023/01/18 12:23:43;;;;;;;7.18;2.33;;;;;;;5.68;54.39;97834.41;12222263;19;20010;-81
2023/01/18 12:27:59;;;;;;;5.00;1.77;;;;;;;5.96;52.34;97842.47;12198606;19;20064;-81
2023/01/18 12:32:14;;;;;;;8.48;2.33;;;;;;;6.04;53.85;97848.25;12228061;19;20046;-81
2023/01/18 12:36:24;;;;;;;5.75;2.58;;;;;;;6.22;53.29;97859.78;12203123;19;20030;-81
2023/01/18 12:40:33;;;;;;;7.10;2.25;;;;;;;6.38;50.38;97864.19;12235309;19;20148;-81
2023/01/18 12:44:52;;;;;;;6.05;2.22;;;;;;;6.27;49.71;97873.44;12226542;19;20007;-81
2023/01/18 12:49:00;;;;;;;7.75;2.40;;;;;;;6.23;48.21;97873.19;12239283;19;20028;-81
2023/01/18 12:53:13;;;;;;;7.68;3.40;;;;;;;6.10;50.78;97879.97;12261134;19;20002;-81
2023/01/18 12:57:16;;;;;;;10.30;2.97;;;;;;;6.26;50.48;97883.56;12217361;19;20006;-82
2023/01/18 13:01:20;;;;;;;7.45;3.25;;;;;;;6.13;50.37;97884.09;12226212;19;20449;-83
2023/01/18 13:06:00;;;;;;;9.40;3.40;;;;;;;5.77;52.18;97883.06;12225161;19;20006;-80
2023/01/18 13:10:04;;;;;;;9.32;4.88;;;;;;;5.46;54.10;97888.38;12201813;19;20043;-81
2023/01/18 13:14:32;;;;;;;15.40;4.78;;;;;;;5.22;55.91;97896.13;12223037;19;20022;-81
2023/01/18 13:23:49;;;;;;;9.82;3.72;;;;;;;4.79;57.37;97917.09;12222638;19;20086;-81
2023/01/18 13:28:02;;;;;;;8.52;4.38;;;;;;;4.72;57.73;97922.72;12207099;19;20002;-81
2023/01/18 13:32:20;;;;;;;;;;;;;;;4.58;57.88;97924.25;12251207;19;20011;-81
2023/01/18 13:36:21;;;;;;;15.27;3.80;;;;;;;4.44;57.94;97928.44;12238354;19;19907;-80
2023/01/18 13:40:33;;;;;;;10.40;4.00;;;;;;;4.33;56.24;97936.50;12249657;19;20007;-82
2023/01/18 13:44:44;;;;;;;10.20;3.85;;;;;;;4.24;56.79;97954.38;12236473;19;20003;-81
2023/01/18 13:48:56;;;;;;;13.25;3.88;;;;;;;4.26;56.54;97951.44;12210384;19;20007;-81
2023/01/18 13:53:17;;;;;;;10.48;4.20;;;;;;;4.26;56.32;97956.88;12227876;19;20850;-81
2023/01/18 13:57:19;;;;;;;8.63;4.18;;;;;;;4.29;56.35;97964.53;12207537;19;20022;-81
2023/01/18 14:01:23;;;;;;;11.07;4.05;;;;;;;4.29;56.48;97964.53;12229598;19;20080;-80
2023/01/18 14:10:30;;;;;;;9.70;4.07;;;;;;;4.30;56.62;97969.72;12216561;19;20038;-81
2023/01/18 14:14:50;;;;;;;11.93;4.63;;;;;;;4.35;56.41;97974.44;12219058;19;20472;-81
2023/01/18 14:18:57;;;;;;;11.60;4.07;;;;;;;4.31;56.51;97990.50;12205837;19;20054;-81
2023/01/18 14:23:23;;;;;;;10.38;3.92;;;;;;;4.27;57.64;97999.41;12220059;19;20108;-80
2023/01/18 14:27:31;;;;;;;11.18;5.20;;;;;;;4.29;56.82;98005.44;12202863;19;20010;-81
2023/01/18 14:31:37;;;;;;;10.52;4.90;;;;;;;4.20;57.25;98023.31;12221342;19;20431;-82
2023/01/18 14:35:50;;;;;;;9.05;3.85;;;;;;;4.10;56.58;98021.25;12224387;19;20015;-81
2023/01/18 14:40:03;;;;;;;9.80;4.20;;;;;;;3.98;56.91;98031.44;12201169;19;20010;-80
2023/01/18 14:44:17;;;;;;;9.75;4.18;;;;;;;3.90;57.84;98043.63;12223176;19;20102;-81
2023/01/18 14:48:22;;;;;;;9.05;3.90;;;;;;;3.89;58.49;98058.31;12199572;19;20019;-81
2023/01/18 14:52:29;;;;;;;11.02;4.55;;;;;;;3.95;58.95;98060.03;12238400;19;20062;-81
2023/01/18 14:56:33;;;;;;;13.95;5.40;;;;;;;3.96;60.15;98064.41;12235047;19;20002;-81
2023/01/18 15:00:44;;;;;;;13.63;5.70;;;;;;;3.93;61.16;98078.53;12210455;19;20052;-80
2023/01/18 15:04:48;;;;;;;10.18;5.28;;;;;;;3.92;61.80;98085.06;12237661;19;20014;-80
2023/01/18 15:08:50;;;;;;;10.57;5.78;;;;;;;3.86;62.11;98086.03;12232629;19;20023;-81
2023/01/18 15:12:56;;;;;;;13.13;5.68;;;;;;;3.84;62.49;98088.22;12209537;19;20613;-80
2023/01/18 15:17:00;;;;;;;12.43;5.10;;;;;;;3.83;62.33;98105.63;12226800;19;20006;-80
2023/01/18 15:21:05;;;;;;;14.02;5.72;;;;;;;3.81;62.36;98107.78;12225809;19;20014;-80
2023/01/18 15:25:17;;;;;;;14.55;5.70;;;;;;;3.76;62.54;98118.59;12201251;19;20007;-81
2023/01/18 15:29:22;;;;;;;11.93;4.63;;;;;;;3.66;63.17;98130.16;12221701;19;20078;-80
2023/01/18 15:33:27;;;;;;;13.07;5.35;;;;;;;3.58;63.47;98142.25;12197867;19;20092;-80
2023/01/18 15:37:32;;;;;;;8.20;4.32;;;;;;;3.42;63.98;98143.03;12217572;19;20006;-80
2023/01/18 15:41:34;;;;;;;11.90;4.38;;;;;;;3.29;64.70;98146.91;12216803;19;20014;-80
2023/01/18 15:45:39;;;;;;;8.15;4.75;;;;;;;3.17;65.07;98138.78;12205925;19;20708;-81
2023/01/18 15:49:47;;;;;;;11.27;5.22;;;;;;;3.08;65.39;98151.13;12217096;19;20017;-80
2023/01/18 15:53:54;;;;;;;12.63;5.45;;;;;;;2.95;65.68;98163.13;12219902;19;20495;-80
2023/01/18 15:58:04;;;;;;;10.98;4.68;;;;;;;2.76;66.31;98166.22;12200966;19;20030;-80
2023/01/18 16:02:20;;;;;;;10.57;4.85;;;;;;;2.58;67.31;98173.47;12218898;19;20046;-80
2023/01/18 16:06:22;;;;;;;12.00;4.70;;;;;;;2.40;68.67;98171.72;12199574;19;20376;-81
2023/01/18 16:10:29;;;;;;;13.07;4.38;;;;;;;2.26;69.76;98181.16;12220081;19;20034;-81
2023/01/18 16:14:35;;;;;;;10.48;4.40;;;;;;;2.08;70.70;98187.53;12222095;19;20010;-81
2023/01/18 16:18:37;;;;;;;14.30;4.78;;;;;;;1.90;72.09;98193.88;12197234;19;20010;-81
2023/01/18 16:22:39;;;;;;;10.02;5.20;;;;;;;1.69;73.18;98197.16;12221315;19;20082;-80
2023/01/18 16:26:42;;;;;;;12.68;5.32;;;;;;;1.53;73.87;98209.50;12219352;19;20046;-80
2023/01/18 16:30:47;;;;;;;;;;;;;;;1.36;75.66;98209.31;12190716;19;20011;-80
2023/01/18 16:34:57;;;;;;;11.30;5.13;;;;;;;1.21;76.10;98223.28;12212827;19;19911;-80
2023/01/18 16:38:59;;;;;;;11.82;5.75;;;;;;;1.09;76.47;98227.81;12209270;19;20010;-80
2023/01/18 16:43:18;;;;;;;11.43;5.07;;;;;;;0.98;77.62;98236.72;12215927;19;20003;-81
2023/01/18 16:47:20;;;;;;;18.15;6.75;;;;;;;0.87;78.06;98246.44;12218529;19;20018;-80
2023/01/18 16:51:23;;;;;;;15.75;6.93;;;;;;;0.78;79.41;98245.91;12195592;19;20433;-80
2023/01/18 16:55:25;;;;;;;19.15;9.23;;;;;;;0.71;80.02;98249.75;12216620;19;20074;-80
2023/01/18 16:59:27;;;;;;;16.58;7.70;;;;;;;0.64;80.79;98260.66;12220503;19;20014;-80
2023/01/18 17:03:29;;;;;;;17.20;7.88;;;;;;;0.57;81.04;98260.72;12193773;19;20021;-81
2023/01/18 17:07:31;;;;;;;20.83;9.15;;;;;;;0.46;81.56;98261.47;12212854;19;20006;-80
2023/01/18 17:11:32;;;;;;;18.95;9.65;;;;;;;0.37;82.46;98270.91;12216187;19;20018;-80
2023/01/18 17:15:35;;;;;;;11.35;5.40;;;;;;;0.30;82.72;98275.53;12203372;19;20011;-81
2023/01/18 17:19:37;;;;;;;13.95;6.28;;;;;;;0.24;83.56;98288.13;12222647;19;20007;-81
2023/01/18 17:23:41;;;;;;;14.15;6.07;;;;;;;0.20;84.35;98298.53;12214768;19;20003;-82
2023/01/18 17:27:43;;;;;;;17.60;7.15;;;;;;;0.15;85.14;98300.25;12195251;19;20037;-80
2023/01/18 17:31:49;;;;;;;21.63;7.30;;;;;;;0.12;86.33;98314.25;12215063;19;20006;-80
2023/01/18 17:35:54;;;;;;;14.93;6.35;;;;;;;0.04;86.83;98318.06;12193102;19;20010;-80
2023/01/18 17:39:55;;;;;;;22.17;9.05;;;;;;;0.02;86.95;98311.19;12220634;19;20002;-80
2023/01/18 17:44:16;;;;;;;16.15;7.25;;;;;;;-0.04;87.38;98319.13;12206546;19;20031;-79
2023/01/18 17:48:24;;;;;;;18.02;7.20;;;;;;;-0.08;87.70;98327.94;12188074;19;20662;-79
2023/01/18 17:52:26;;;;;;;17.67;7.30;;;;;;;-0.15;88.35;98329.81;12214926;19;20003;-80
2023/01/18 17:56:28;;;;;;;12.73;7.53;;;;;;;-0.22;88.61;98329.03;12217126;19;20071;-79
2023/01/18 18:00:30;;;;;;;15.63;6.57;;;;;;;-0.27;88.81;98324.28;12195461;19;20409;-79
2023/01/18 18:04:32;;;;;;;13.43;6.40;;;;;;;-0.33;89.04;98341.38;12214699;19;20030;-80
2023/01/18 18:08:34;;;;;;;16.70;6.50;;;;;;;-0.37;89.62;98349.09;12220223;19;20010;-80
2023/01/18 18:12:44;;;;;;;15.38;5.95;;;;;;;-0.38;90.62;98354.75;12200689;19;20010;-78
2023/01/18 18:16:50;;;;;;;14.52;6.78;;;;;;;-0.36;90.91;98366.16;12261054;19;20014;-79
2023/01/18 18:20:57;;;;;;;16.30;5.82;;;;;;;-0.34;92.21;98366.78;12220069;19;20015;-80
2023/01/18 18:24:59;;;;;;;16.48;6.55;;;;;;;-0.34;91.91;98375.75;12231133;19;20006;-79
2023/01/18 18:29:01;;;;;;;13.77;5.68;;;;;;;-0.36;91.94;98372.41;12249074;19;19998;-81
2023/01/18 18:33:02;;;;;;;15.55;5.80;;;;;;;-0.37;91.95;98369.94;12245663;19;20019;-79
2023/01/18 18:37:04;;;;;;;13.52;6.05;;;;;;;-0.36;92.52;98375.13;12262442;19;20003;-81
2023/01/18 18:41:07;;;;;;;18.15;5.82;;;;;;;-0.37;92.37;98373.47;12245926;19;20006;-79
2023/01/18 18:45:09;;;;;;;13.00;6.05;;;;;;;-0.38;92.48;98379.09;12218224;19;20021;-80
2023/01/18 18:49:11;;;;;;;14.25;5.75;;;;;;;-0.39;92.09;98390.94;12242061;19;20046;-80
2023/01/18 18:53:13;;;;;;;14.10;6.78;;;;;;;-0.42;92.22;98397.63;12237019;19;20007;-80
2023/01/18 18:57:14;;;;;;;18.05;5.97;;;;;;;-0.46;92.60;98397.22;12207177;19;20011;-80
2023/01/18 19:01:21;;;;;;;14.57;6.40;;;;;;;-0.48;92.99;98403.88;12229113;19;20086;-81
2023/01/18 19:05:23;;;;;;;14.57;6.65;;;;;;;-0.50;93.09;98409.53;12225459;19;20014;-80
2023/01/18 19:09:24;;;;;;;16.17;6.75;;;;;;;-0.50;93.30;98406.81;12209160;19;20585;-79
2023/01/18 19:13:26;;;;;;;14.45;6.03;;;;;;;-0.51;93.26;98421.38;12225128;19;20009;-80
2023/01/18 19:17:28;;;;;;;13.52;5.18;;;;;;;-0.51;93.60;98424.09;12222451;19;20007;-79
2023/01/18 19:21:32;;;;;;;14.70;5.38;;;;;;;-0.51;93.64;98432.19;12200207;19;20070;-80
2023/01/18 19:25:36;;;;;;;13.95;5.63;;;;;;;-0.49;93.56;98434.72;12220103;19;20030;-80
2023/01/18 19:29:38;;;;;;;13.73;6.07;;;;;;;-0.49;92.96;98440.94;12223360;19;20014;-81
2023/01/18 19:33:40;;;;;;;14.40;5.63;;;;;;;-0.51;93.53;98448.44;12199290;19;20034;-81
2023/01/18 19:37:42;;;;;;;11.18;5.05;;;;;;;-0.51;93.07;98453.03;12221381;19;20007;-81
2023/01/18 19:41:43;;;;;;;10.47;4.90;;;;;;;-0.51;93.29;98453.84;12222320;19;20002;-80
2023/01/18 19:45:45;;;;;;;10.30;5.00;;;;;;;-0.48;93.37;98448.03;12195867;19;20599;-81
2023/01/18 19:49:47;;;;;;;10.73;4.90;;;;;;;-0.47;93.34;98454.28;12220151;19;20007;-81
2023/01/18 19:53:51;;;;;;;13.27;5.47;;;;;;;-0.48;93.14;98461.56;12194159;19;20102;-81